sensor_id;sensor_type;location;lat;lon;timestamp;temperature;humidity
67641;SHT31;54434;50.096;20.082;2023-04-25T00:00:10;12.14;81.63
67641;SHT31;54434;50.096;20.082;2023-04-25T00:03:08;12.14;81.64
67641;SHT31;54434;50.096;20.082;2023-04-25T00:05:45;12.14;81.68
67641;SHT31;54434;50.096;20.082;2023-04-25T00:08:23;12.15;81.71
67641;SHT31;54434;50.096;20.082;2023-04-25T00:11:00;12.15;81.73
67641;SHT31;54434;50.096;20.082;2023-04-25T00:13:37;12.16;81.70
67641;SHT31;54434;50.096;20.082;2023-04-25T00:16:14;12.18;81.61
67641;SHT31;54434;50.096;20.082;2023-04-25T00:18:50;12.17;81.64
67641;SHT31;54434;50.096;20.082;2023-04-25T00:21:27;12.17;81.69
67641;SHT31;54434;50.096;20.082;2023-04-25T00:24:05;12.16;81.71
67641;SHT31;54434;50.096;20.082;2023-04-25T00:26:42;12.15;81.77
67641;SHT31;54434;50.096;20.082;2023-04-25T00:29:18;12.15;81.83
67641;SHT31;54434;50.096;20.082;2023-04-25T00:31:54;12.14;81.98
67641;SHT31;54434;50.096;20.082;2023-04-25T00:34:30;12.13;81.90
67641;SHT31;54434;50.096;20.082;2023-04-25T00:37:07;12.09;81.32
67641;SHT31;54434;50.096;20.082;2023-04-25T00:39:44;12.01;80.88
67641;SHT31;54434;50.096;20.082;2023-04-25T00:42:20;11.92;80.57
67641;SHT31;54434;50.096;20.082;2023-04-25T00:44:57;11.85;80.29
67641;SHT31;54434;50.096;20.082;2023-04-25T00:47:37;11.78;80.16
67641;SHT31;54434;50.096;20.082;2023-04-25T00:50:14;11.72;80.10
67641;SHT31;54434;50.096;20.082;2023-04-25T00:52:50;11.64;80.11
67641;SHT31;54434;50.096;20.082;2023-04-25T00:55:30;11.57;80.06
67641;SHT31;54434;50.096;20.082;2023-04-25T00:58:08;11.52;80.01
67641;SHT31;54434;50.096;20.082;2023-04-25T01:00:44;11.45;80.15
67641;SHT31;54434;50.096;20.082;2023-04-25T01:03:24;11.38;80.01
67641;SHT31;54434;50.096;20.082;2023-04-25T01:06:01;11.35;80.07
67641;SHT31;54434;50.096;20.082;2023-04-25T01:08:38;11.33;80.07
67641;SHT31;54434;50.096;20.082;2023-04-25T01:11:15;11.27;80.07
67641;SHT31;54434;50.096;20.082;2023-04-25T01:13:52;11.23;80.02
67641;SHT31;54434;50.096;20.082;2023-04-25T01:16:29;11.20;80.01
67641;SHT31;54434;50.096;20.082;2023-04-25T01:19:10;11.17;80.06
67641;SHT31;54434;50.096;20.082;2023-04-25T01:21:51;11.14;80.09
67641;SHT31;54434;50.096;20.082;2023-04-25T01:24:28;11.10;80.26
67641;SHT31;54434;50.096;20.082;2023-04-25T01:27:05;11.07;80.46
67641;SHT31;54434;50.096;20.082;2023-04-25T01:29:43;11.04;80.54
67641;SHT31;54434;50.096;20.082;2023-04-25T01:32:20;11.01;80.60
67641;SHT31;54434;50.096;20.082;2023-04-25T01:34:59;10.98;80.69
67641;SHT31;54434;50.096;20.082;2023-04-25T01:37:36;10.96;80.72
67641;SHT31;54434;50.096;20.082;2023-04-25T01:40:15;10.93;80.82
67641;SHT31;54434;50.096;20.082;2023-04-25T01:42:54;10.90;80.83
67641;SHT31;54434;50.096;20.082;2023-04-25T01:45:31;10.89;80.74
67641;SHT31;54434;50.096;20.082;2023-04-25T01:48:09;10.86;80.66
67641;SHT31;54434;50.096;20.082;2023-04-25T01:50:47;10.84;80.67
67641;SHT31;54434;50.096;20.082;2023-04-25T01:53:24;10.81;80.60
67641;SHT31;54434;50.096;20.082;2023-04-25T01:56:01;10.78;80.57
67641;SHT31;54434;50.096;20.082;2023-04-25T01:58:39;10.76;80.39
67641;SHT31;54434;50.096;20.082;2023-04-25T02:01:56;10.73;80.20
67641;SHT31;54434;50.096;20.082;2023-04-25T02:04:35;10.70;80.28
67641;SHT31;54434;50.096;20.082;2023-04-25T02:07:12;10.68;80.19
67641;SHT31;54434;50.096;20.082;2023-04-25T02:09:53;10.65;80.23
67641;SHT31;54434;50.096;20.082;2023-04-25T02:12:32;10.63;80.19
67641;SHT31;54434;50.096;20.082;2023-04-25T02:15:50;10.58;80.24
67641;SHT31;54434;50.096;20.082;2023-04-25T02:18:27;10.55;80.38
67641;SHT31;54434;50.096;20.082;2023-04-25T02:21:04;10.54;80.46
67641;SHT31;54434;50.096;20.082;2023-04-25T02:23:41;10.51;80.37
67641;SHT31;54434;50.096;20.082;2023-04-25T02:26:20;10.48;80.32
67641;SHT31;54434;50.096;20.082;2023-04-25T02:28:57;10.45;80.46
67641;SHT31;54434;50.096;20.082;2023-04-25T02:31:33;10.44;80.40
67641;SHT31;54434;50.096;20.082;2023-04-25T02:34:10;10.41;80.38
67641;SHT31;54434;50.096;20.082;2023-04-25T02:36:47;10.43;80.32
67641;SHT31;54434;50.096;20.082;2023-04-25T02:39:24;10.40;80.45
67641;SHT31;54434;50.096;20.082;2023-04-25T02:42:01;10.38;80.60
67641;SHT31;54434;50.096;20.082;2023-04-25T02:44:37;10.36;80.65
67641;SHT31;54434;50.096;20.082;2023-04-25T02:47:14;10.35;80.57
67641;SHT31;54434;50.096;20.082;2023-04-25T02:49:50;10.33;80.49
67641;SHT31;54434;50.096;20.082;2023-04-25T02:52:27;10.31;80.52
67641;SHT31;54434;50.096;20.082;2023-04-25T02:55:10;10.28;80.72
67641;SHT31;54434;50.096;20.082;2023-04-25T02:57:47;10.27;80.79
67641;SHT31;54434;50.096;20.082;2023-04-25T03:00:33;10.26;80.88
67641;SHT31;54434;50.096;20.082;2023-04-25T03:03:10;10.26;80.82
67641;SHT31;54434;50.096;20.082;2023-04-25T03:05:49;10.25;80.71
67641;SHT31;54434;50.096;20.082;2023-04-25T03:08:30;10.25;80.65
67641;SHT31;54434;50.096;20.082;2023-04-25T03:11:06;10.26;80.60
67641;SHT31;54434;50.096;20.082;2023-04-25T03:13:43;10.24;80.70
67641;SHT31;54434;50.096;20.082;2023-04-25T03:16:20;10.25;80.73
67641;SHT31;54434;50.096;20.082;2023-04-25T03:18:57;10.23;80.84
67641;SHT31;54434;50.096;20.082;2023-04-25T03:21:34;10.22;81.07
67641;SHT31;54434;50.096;20.082;2023-04-25T03:24:11;10.21;81.10
67641;SHT31;54434;50.096;20.082;2023-04-25T03:26:48;10.21;81.21
67641;SHT31;54434;50.096;20.082;2023-04-25T03:29:24;10.20;81.29
67641;SHT31;54434;50.096;20.082;2023-04-25T03:32:01;10.20;81.43
67641;SHT31;54434;50.096;20.082;2023-04-25T03:34:38;10.19;81.48
67641;SHT31;54434;50.096;20.082;2023-04-25T03:37:14;10.20;81.48
67641;SHT31;54434;50.096;20.082;2023-04-25T03:39:51;10.22;81.55
67641;SHT31;54434;50.096;20.082;2023-04-25T03:42:28;10.22;81.64
67641;SHT31;54434;50.096;20.082;2023-04-25T03:45:08;10.22;81.71
67641;SHT31;54434;50.096;20.082;2023-04-25T03:47:45;10.23;81.74
67641;SHT31;54434;50.096;20.082;2023-04-25T03:50:22;10.24;81.73
67641;SHT31;54434;50.096;20.082;2023-04-25T03:53:00;10.22;81.97
67641;SHT31;54434;50.096;20.082;2023-04-25T03:55:49;10.23;82.08
67641;SHT31;54434;50.096;20.082;2023-04-25T03:58:26;10.24;82.13
67641;SHT31;54434;50.096;20.082;2023-04-25T04:01:02;10.24;82.26
67641;SHT31;54434;50.096;20.082;2023-04-25T04:03:41;10.24;82.19
67641;SHT31;54434;50.096;20.082;2023-04-25T04:06:17;10.25;82.16
67641;SHT31;54434;50.096;20.082;2023-04-25T04:08:59;10.25;82.26
67641;SHT31;54434;50.096;20.082;2023-04-25T04:11:38;10.26;82.18
67641;SHT31;54434;50.096;20.082;2023-04-25T04:14:15;10.26;82.25
67641;SHT31;54434;50.096;20.082;2023-04-25T04:16:53;10.26;82.17
67641;SHT31;54434;50.096;20.082;2023-04-25T04:19:30;10.24;82.12
67641;SHT31;54434;50.096;20.082;2023-04-25T04:22:14;10.22;81.88
67641;SHT31;54434;50.096;20.082;2023-04-25T04:24:51;10.18;81.66
67641;SHT31;54434;50.096;20.082;2023-04-25T04:28:09;10.16;81.73
67641;SHT31;54434;50.096;20.082;2023-04-25T04:30:54;10.15;81.57
67641;SHT31;54434;50.096;20.082;2023-04-25T04:33:33;10.15;81.43
67641;SHT31;54434;50.096;20.082;2023-04-25T04:36:11;10.11;80.92
67641;SHT31;54434;50.096;20.082;2023-04-25T04:38:51;10.07;80.51
67641;SHT31;54434;50.096;20.082;2023-04-25T04:41:39;10.05;80.34
67641;SHT31;54434;50.096;20.082;2023-04-25T04:44:34;10.02;80.30
67641;SHT31;54434;50.096;20.082;2023-04-25T04:47:18;10.00;80.34
67641;SHT31;54434;50.096;20.082;2023-04-25T04:50:07;9.97;80.35
67641;SHT31;54434;50.096;20.082;2023-04-25T04:53:03;9.96;80.46
67641;SHT31;54434;50.096;20.082;2023-04-25T04:56:04;9.93;80.45
67641;SHT31;54434;50.096;20.082;2023-04-25T04:59:10;9.89;80.59
67641;SHT31;54434;50.096;20.082;2023-04-25T05:02:05;9.89;80.83
67641;SHT31;54434;50.096;20.082;2023-04-25T05:04:57;9.88;81.01
67641;SHT31;54434;50.096;20.082;2023-04-25T05:08:01;9.89;81.11
67641;SHT31;54434;50.096;20.082;2023-04-25T05:11:27;9.92;81.23
67641;SHT31;54434;50.096;20.082;2023-04-25T05:14:18;9.93;81.38
67641;SHT31;54434;50.096;20.082;2023-04-25T05:17:31;9.98;81.60
67641;SHT31;54434;50.096;20.082;2023-04-25T05:20:49;10.03;81.59
67641;SHT31;54434;50.096;20.082;2023-04-25T05:23:39;10.06;81.50
67641;SHT31;54434;50.096;20.082;2023-04-25T05:26:34;10.08;81.50
67641;SHT31;54434;50.096;20.082;2023-04-25T05:29:26;10.10;81.43
67641;SHT31;54434;50.096;20.082;2023-04-25T05:32:28;10.10;81.38
67641;SHT31;54434;50.096;20.082;2023-04-25T05:35:05;10.08;81.19
67641;SHT31;54434;50.096;20.082;2023-04-25T05:37:50;10.05;81.05
67641;SHT31;54434;50.096;20.082;2023-04-25T05:40:38;10.03;80.99
67641;SHT31;54434;50.096;20.082;2023-04-25T05:43:33;10.03;80.80
67641;SHT31;54434;50.096;20.082;2023-04-25T05:46:26;10.02;80.83
67641;SHT31;54434;50.096;20.082;2023-04-25T05:49:55;10.03;80.54
67641;SHT31;54434;50.096;20.082;2023-04-25T05:52:48;10.01;80.26
67641;SHT31;54434;50.096;20.082;2023-04-25T05:55:40;9.98;79.76
67641;SHT31;54434;50.096;20.082;2023-04-25T05:58:33;9.96;79.75
67641;SHT31;54434;50.096;20.082;2023-04-25T06:01:09;9.94;79.80
67641;SHT31;54434;50.096;20.082;2023-04-25T06:03:46;9.88;79.45
67641;SHT31;54434;50.096;20.082;2023-04-25T06:06:25;9.83;79.28
67641;SHT31;54434;50.096;20.082;2023-04-25T06:09:03;9.79;79.00
67641;SHT31;54434;50.096;20.082;2023-04-25T06:11:39;9.75;79.12
67641;SHT31;54434;50.096;20.082;2023-04-25T06:14:15;9.72;79.37
67641;SHT31;54434;50.096;20.082;2023-04-25T06:16:53;9.68;79.16
67641;SHT31;54434;50.096;20.082;2023-04-25T06:19:31;9.66;79.14
67641;SHT31;54434;50.096;20.082;2023-04-25T06:22:08;9.65;79.13
67641;SHT31;54434;50.096;20.082;2023-04-25T06:24:45;9.61;79.14
67641;SHT31;54434;50.096;20.082;2023-04-25T06:27:21;9.59;79.25
67641;SHT31;54434;50.096;20.082;2023-04-25T06:29:57;9.60;79.05
67641;SHT31;54434;50.096;20.082;2023-04-25T06:32:34;9.60;79.15
67641;SHT31;54434;50.096;20.082;2023-04-25T06:35:11;9.61;79.28
67641;SHT31;54434;50.096;20.082;2023-04-25T06:37:48;9.61;79.12
67641;SHT31;54434;50.096;20.082;2023-04-25T06:40:26;9.62;79.37
67641;SHT31;54434;50.096;20.082;2023-04-25T06:43:02;9.62;78.94
67641;SHT31;54434;50.096;20.082;2023-04-25T06:45:53;9.64;78.74
67641;SHT31;54434;50.096;20.082;2023-04-25T06:48:31;9.64;77.79
67641;SHT31;54434;50.096;20.082;2023-04-25T06:51:08;9.62;77.68
67641;SHT31;54434;50.096;20.082;2023-04-25T06:53:46;9.64;77.43
67641;SHT31;54434;50.096;20.082;2023-04-25T06:56:30;9.68;77.20
67641;SHT31;54434;50.096;20.082;2023-04-25T06:59:11;9.73;77.15
67641;SHT31;54434;50.096;20.082;2023-04-25T07:01:49;9.77;76.99
67641;SHT31;54434;50.096;20.082;2023-04-25T07:04:29;9.81;76.83
67641;SHT31;54434;50.096;20.082;2023-04-25T07:07:06;9.83;76.37
67641;SHT31;54434;50.096;20.082;2023-04-25T07:09:47;9.84;76.92
67641;SHT31;54434;50.096;20.082;2023-04-25T07:12:22;9.91;76.91
67641;SHT31;54434;50.096;20.082;2023-04-25T07:14:59;10.01;77.15
67641;SHT31;54434;50.096;20.082;2023-04-25T07:17:38;10.14;76.88
67641;SHT31;54434;50.096;20.082;2023-04-25T07:20:15;10.26;77.02
67641;SHT31;54434;50.096;20.082;2023-04-25T07:22:52;10.33;76.91
67641;SHT31;54434;50.096;20.082;2023-04-25T07:25:29;10.40;76.76
67641;SHT31;54434;50.096;20.082;2023-04-25T07:28:07;10.41;75.89
67641;SHT31;54434;50.096;20.082;2023-04-25T07:30:44;10.40;75.48
67641;SHT31;54434;50.096;20.082;2023-04-25T07:33:20;10.35;75.34
67641;SHT31;54434;50.096;20.082;2023-04-25T07:35:57;10.36;75.50
67641;SHT31;54434;50.096;20.082;2023-04-25T07:38:34;10.40;75.64
67641;SHT31;54434;50.096;20.082;2023-04-25T07:41:10;10.46;76.14
67641;SHT31;54434;50.096;20.082;2023-04-25T07:43:47;10.61;76.21
67641;SHT31;54434;50.096;20.082;2023-04-25T07:46:23;10.70;75.55
67641;SHT31;54434;50.096;20.082;2023-04-25T07:49:00;10.75;75.42
67641;SHT31;54434;50.096;20.082;2023-04-25T07:51:37;10.81;75.56
67641;SHT31;54434;50.096;20.082;2023-04-25T07:54:18;10.90;75.73
67641;SHT31;54434;50.096;20.082;2023-04-25T07:56:59;11.09;76.48
67641;SHT31;54434;50.096;20.082;2023-04-25T07:59:38;11.34;74.54
67641;SHT31;54434;50.096;20.082;2023-04-25T08:02:14;11.58;73.45
67641;SHT31;54434;50.096;20.082;2023-04-25T08:04:51;11.80;72.70
67641;SHT31;54434;50.096;20.082;2023-04-25T08:07:28;11.97;71.88
67641;SHT31;54434;50.096;20.082;2023-04-25T08:10:08;12.12;71.21
67641;SHT31;54434;50.096;20.082;2023-04-25T08:12:46;12.32;70.18
67641;SHT31;54434;50.096;20.082;2023-04-25T08:15:22;12.50;69.07
67641;SHT31;54434;50.096;20.082;2023-04-25T08:17:59;12.65;68.41
67641;SHT31;54434;50.096;20.082;2023-04-25T08:20:36;12.82;68.22
67641;SHT31;54434;50.096;20.082;2023-04-25T08:23:14;12.95;67.47
67641;SHT31;54434;50.096;20.082;2023-04-25T08:26:08;13.04;66.91
67641;SHT31;54434;50.096;20.082;2023-04-25T08:28:47;13.15;66.84
67641;SHT31;54434;50.096;20.082;2023-04-25T08:31:24;13.17;65.37
67641;SHT31;54434;50.096;20.082;2023-04-25T08:34:05;13.01;63.88
67641;SHT31;54434;50.096;20.082;2023-04-25T08:36:48;12.91;65.10
67641;SHT31;54434;50.096;20.082;2023-04-25T08:39:41;12.85;65.06
67641;SHT31;54434;50.096;20.082;2023-04-25T08:42:28;12.81;66.15
67641;SHT31;54434;50.096;20.082;2023-04-25T08:45:09;12.78;66.21
67641;SHT31;54434;50.096;20.082;2023-04-25T08:47:46;12.69;65.69
67641;SHT31;54434;50.096;20.082;2023-04-25T08:50:28;12.63;65.35
67641;SHT31;54434;50.096;20.082;2023-04-25T08:53:07;12.62;65.44
67641;SHT31;54434;50.096;20.082;2023-04-25T08:55:50;12.57;65.41
67641;SHT31;54434;50.096;20.082;2023-04-25T08:58:30;12.56;65.49
67641;SHT31;54434;50.096;20.082;2023-04-25T09:01:08;12.49;65.79
67641;SHT31;54434;50.096;20.082;2023-04-25T09:03:50;12.45;65.91
67641;SHT31;54434;50.096;20.082;2023-04-25T09:06:28;12.43;66.15
67641;SHT31;54434;50.096;20.082;2023-04-25T09:09:07;12.37;66.14
67641;SHT31;54434;50.096;20.082;2023-04-25T09:11:44;12.28;65.79
67641;SHT31;54434;50.096;20.082;2023-04-25T09:14:23;12.20;66.20
67641;SHT31;54434;50.096;20.082;2023-04-25T09:17:08;12.21;67.16
67641;SHT31;54434;50.096;20.082;2023-04-25T09:19:53;12.22;66.97
67641;SHT31;54434;50.096;20.082;2023-04-25T09:22:40;12.28;66.63
67641;SHT31;54434;50.096;20.082;2023-04-25T09:25:20;12.30;66.11
67641;SHT31;54434;50.096;20.082;2023-04-25T09:27:57;12.26;64.20
67641;SHT31;54434;50.096;20.082;2023-04-25T09:30:38;12.16;63.76
67641;SHT31;54434;50.096;20.082;2023-04-25T09:33:23;12.05;64.17
67641;SHT31;54434;50.096;20.082;2023-04-25T09:36:06;11.94;65.05
67641;SHT31;54434;50.096;20.082;2023-04-25T09:39:08;11.90;65.95
67641;SHT31;54434;50.096;20.082;2023-04-25T09:41:56;11.90;66.19
67641;SHT31;54434;50.096;20.082;2023-04-25T09:44:33;11.90;66.53
67641;SHT31;54434;50.096;20.082;2023-04-25T09:47:15;11.91;67.06
67641;SHT31;54434;50.096;20.082;2023-04-25T09:49:54;11.89;66.97
67641;SHT31;54434;50.096;20.082;2023-04-25T09:52:30;11.85;67.53
67641;SHT31;54434;50.096;20.082;2023-04-25T09:55:17;11.84;67.84
67641;SHT31;54434;50.096;20.082;2023-04-25T09:57:54;11.84;68.29
67641;SHT31;54434;50.096;20.082;2023-04-25T10:00:37;11.76;66.64
67641;SHT31;54434;50.096;20.082;2023-04-25T10:03:23;11.67;66.13
67641;SHT31;54434;50.096;20.082;2023-04-25T10:06:21;11.61;66.61
67641;SHT31;54434;50.096;20.082;2023-04-25T10:09:00;11.64;67.19
67641;SHT31;54434;50.096;20.082;2023-04-25T10:11:39;11.68;66.32
67641;SHT31;54434;50.096;20.082;2023-04-25T10:14:18;11.76;66.53
67641;SHT31;54434;50.096;20.082;2023-04-25T10:16:56;11.90;67.14
67641;SHT31;54434;50.096;20.082;2023-04-25T10:19:34;12.04;66.87
67641;SHT31;54434;50.096;20.082;2023-04-25T10:22:14;12.15;65.36
67641;SHT31;54434;50.096;20.082;2023-04-25T10:25:02;12.16;63.89
67641;SHT31;54434;50.096;20.082;2023-04-25T10:27:41;12.20;64.18
67641;SHT31;54434;50.096;20.082;2023-04-25T10:30:18;12.30;64.93
67641;SHT31;54434;50.096;20.082;2023-04-25T10:32:54;12.39;64.47
67641;SHT31;54434;50.096;20.082;2023-04-25T10:35:33;12.39;63.18
67641;SHT31;54434;50.096;20.082;2023-04-25T10:38:13;12.34;62.81
67641;SHT31;54434;50.096;20.082;2023-04-25T10:41:05;12.32;64.41
67641;SHT31;54434;50.096;20.082;2023-04-25T10:43:44;12.23;63.05
67641;SHT31;54434;50.096;20.082;2023-04-25T10:46:25;12.15;63.14
67641;SHT31;54434;50.096;20.082;2023-04-25T10:49:03;12.06;62.37
67641;SHT31;54434;50.096;20.082;2023-04-25T10:51:46;12.10;62.42
67641;SHT31;54434;50.096;20.082;2023-04-25T10:54:26;12.14;61.71
67641;SHT31;54434;50.096;20.082;2023-04-25T10:57:03;12.27;62.72
67641;SHT31;54434;50.096;20.082;2023-04-25T10:59:39;12.48;63.41
67641;SHT31;54434;50.096;20.082;2023-04-25T11:02:15;12.65;62.88
67641;SHT31;54434;50.096;20.082;2023-04-25T11:04:52;12.88;63.29
67641;SHT31;54434;50.096;20.082;2023-04-25T11:07:38;13.01;61.40
67641;SHT31;54434;50.096;20.082;2023-04-25T11:10:37;13.05;60.01
67641;SHT31;54434;50.096;20.082;2023-04-25T11:13:16;13.03;59.86
67641;SHT31;54434;50.096;20.082;2023-04-25T11:16:01;13.09;60.77
67641;SHT31;54434;50.096;20.082;2023-04-25T11:18:48;13.08;59.66
67641;SHT31;54434;50.096;20.082;2023-04-25T11:21:26;13.01;60.27
67641;SHT31;54434;50.096;20.082;2023-04-25T11:24:04;12.99;60.13
67641;SHT31;54434;50.096;20.082;2023-04-25T11:26:42;13.00;60.64
67641;SHT31;54434;50.096;20.082;2023-04-25T11:29:22;12.98;60.66
67641;SHT31;54434;50.096;20.082;2023-04-25T11:32:00;12.99;61.40
67641;SHT31;54434;50.096;20.082;2023-04-25T11:34:37;13.01;61.40
67641;SHT31;54434;50.096;20.082;2023-04-25T11:37:17;12.95;60.32
67641;SHT31;54434;50.096;20.082;2023-04-25T11:39:54;12.90;60.61
67641;SHT31;54434;50.096;20.082;2023-04-25T11:42:31;12.93;61.52
67641;SHT31;54434;50.096;20.082;2023-04-25T11:45:08;12.98;61.15
67641;SHT31;54434;50.096;20.082;2023-04-25T11:47:46;13.03;61.25
67641;SHT31;54434;50.096;20.082;2023-04-25T11:50:24;12.99;59.72
67641;SHT31;54434;50.096;20.082;2023-04-25T11:53:02;12.89;60.10
67641;SHT31;54434;50.096;20.082;2023-04-25T11:55:39;12.88;60.78
67641;SHT31;54434;50.096;20.082;2023-04-25T11:58:16;12.90;61.00
67641;SHT31;54434;50.096;20.082;2023-04-25T12:00:52;12.78;60.29
67641;SHT31;54434;50.096;20.082;2023-04-25T12:03:31;12.68;60.84
67641;SHT31;54434;50.096;20.082;2023-04-25T12:06:19;12.65;61.57
67641;SHT31;54434;50.096;20.082;2023-04-25T12:09:02;12.56;61.28
67641;SHT31;54434;50.096;20.082;2023-04-25T12:11:46;12.51;62.05
67641;SHT31;54434;50.096;20.082;2023-04-25T12:14:28;12.47;62.20
67641;SHT31;54434;50.096;20.082;2023-04-25T12:17:06;12.41;61.99
67641;SHT31;54434;50.096;20.082;2023-04-25T12:19:43;12.38;62.12
67641;SHT31;54434;50.096;20.082;2023-04-25T12:22:23;12.33;61.99
67641;SHT31;54434;50.096;20.082;2023-04-25T12:25:02;12.26;62.23
67641;SHT31;54434;50.096;20.082;2023-04-25T12:27:39;12.18;62.40
67641;SHT31;54434;50.096;20.082;2023-04-25T12:30:16;12.16;63.02
67641;SHT31;54434;50.096;20.082;2023-04-25T12:32:52;12.15;63.62
67641;SHT31;54434;50.096;20.082;2023-04-25T12:35:28;12.12;63.34
67641;SHT31;54434;50.096;20.082;2023-04-25T12:38:06;12.07;63.43
67641;SHT31;54434;50.096;20.082;2023-04-25T12:40:43;11.99;63.61
67641;SHT31;54434;50.096;20.082;2023-04-25T12:43:19;11.90;63.62
67641;SHT31;54434;50.096;20.082;2023-04-25T12:45:56;11.84;64.38
67641;SHT31;54434;50.096;20.082;2023-04-25T12:48:33;11.81;65.64
67641;SHT31;54434;50.096;20.082;2023-04-25T12:51:10;11.77;66.97
67641;SHT31;54434;50.096;20.082;2023-04-25T12:53:46;11.71;66.58
67641;SHT31;54434;50.096;20.082;2023-04-25T12:56:23;11.62;66.59
67641;SHT31;54434;50.096;20.082;2023-04-25T12:58:59;11.55;67.59
67641;SHT31;54434;50.096;20.082;2023-04-25T13:01:36;11.41;67.56
67641;SHT31;54434;50.096;20.082;2023-04-25T13:04:12;11.29;66.96
67641;SHT31;54434;50.096;20.082;2023-04-25T13:06:50;11.21;67.32
67641;SHT31;54434;50.096;20.082;2023-04-25T13:09:26;11.13;68.38
67641;SHT31;54434;50.096;20.082;2023-04-25T13:12:03;11.06;69.87
67641;SHT31;54434;50.096;20.082;2023-04-25T13:14:40;11.01;70.70
67641;SHT31;54434;50.096;20.082;2023-04-25T13:17:16;11.05;70.78
67641;SHT31;54434;50.096;20.082;2023-04-25T13:19:52;11.09;70.74
67641;SHT31;54434;50.096;20.082;2023-04-25T13:22:29;11.13;70.53
67641;SHT31;54434;50.096;20.082;2023-04-25T13:25:07;11.16;69.78
67641;SHT31;54434;50.096;20.082;2023-04-25T13:27:43;11.15;68.12
67641;SHT31;54434;50.096;20.082;2023-04-25T13:30:20;11.14;67.95
67641;SHT31;54434;50.096;20.082;2023-04-25T13:32:57;11.13;67.83
67641;SHT31;54434;50.096;20.082;2023-04-25T13:35:35;11.17;67.64
67641;SHT31;54434;50.096;20.082;2023-04-25T13:38:12;11.21;68.47
67641;SHT31;54434;50.096;20.082;2023-04-25T13:40:49;11.26;67.93
67641;SHT31;54434;50.096;20.082;2023-04-25T13:43:26;11.33;69.08
67641;SHT31;54434;50.096;20.082;2023-04-25T13:46:05;11.36;68.50
67641;SHT31;54434;50.096;20.082;2023-04-25T13:49:03;11.34;68.27
67641;SHT31;54434;50.096;20.082;2023-04-25T13:51:43;11.37;67.65
67641;SHT31;54434;50.096;20.082;2023-04-25T13:54:20;11.45;68.75
67641;SHT31;54434;50.096;20.082;2023-04-25T13:56:56;11.62;68.55
67641;SHT31;54434;50.096;20.082;2023-04-25T13:59:33;11.69;66.82
67641;SHT31;54434;50.096;20.082;2023-04-25T14:02:10;11.73;67.22
67641;SHT31;54434;50.096;20.082;2023-04-25T14:04:47;11.80;67.85
67641;SHT31;54434;50.096;20.082;2023-04-25T14:07:23;11.85;66.97
67641;SHT31;54434;50.096;20.082;2023-04-25T14:10:02;11.84;65.90
67641;SHT31;54434;50.096;20.082;2023-04-25T14:12:40;11.81;65.89
67641;SHT31;54434;50.096;20.082;2023-04-25T14:15:16;11.78;66.04
67641;SHT31;54434;50.096;20.082;2023-04-25T14:17:53;11.84;66.78
67641;SHT31;54434;50.096;20.082;2023-04-25T14:20:30;11.85;67.50
67641;SHT31;54434;50.096;20.082;2023-04-25T14:23:07;11.84;66.90
67641;SHT31;54434;50.096;20.082;2023-04-25T14:25:43;11.85;66.94
67641;SHT31;54434;50.096;20.082;2023-04-25T14:28:20;11.88;65.56
67641;SHT31;54434;50.096;20.082;2023-04-25T14:30:57;11.89;65.91
67641;SHT31;54434;50.096;20.082;2023-04-25T14:33:33;11.87;67.14
67641;SHT31;54434;50.096;20.082;2023-04-25T14:36:13;11.84;67.58
67641;SHT31;54434;50.096;20.082;2023-04-25T14:38:50;11.79;66.85
67641;SHT31;54434;50.096;20.082;2023-04-25T14:41:26;11.75;66.78
67641;SHT31;54434;50.096;20.082;2023-04-25T14:44:03;11.75;67.48
67641;SHT31;54434;50.096;20.082;2023-04-25T14:46:40;11.77;67.71
67641;SHT31;54434;50.096;20.082;2023-04-25T14:49:16;11.75;67.62
67641;SHT31;54434;50.096;20.082;2023-04-25T14:51:53;11.71;66.59
67641;SHT31;54434;50.096;20.082;2023-04-25T14:54:30;11.60;67.06
67641;SHT31;54434;50.096;20.082;2023-04-25T14:57:06;11.50;68.30
67641;SHT31;54434;50.096;20.082;2023-04-25T14:59:42;11.38;68.88
67641;SHT31;54434;50.096;20.082;2023-04-25T15:02:19;11.32;68.98
67641;SHT31;54434;50.096;20.082;2023-04-25T15:04:56;11.27;69.05
67641;SHT31;54434;50.096;20.082;2023-04-25T15:07:33;11.19;69.28
67641;SHT31;54434;50.096;20.082;2023-04-25T15:10:11;11.14;69.21
67641;SHT31;54434;50.096;20.082;2023-04-25T15:12:49;11.14;69.75
67641;SHT31;54434;50.096;20.082;2023-04-25T15:15:27;11.17;69.84
67641;SHT31;54434;50.096;20.082;2023-04-25T15:18:04;11.16;69.62
67641;SHT31;54434;50.096;20.082;2023-04-25T15:20:41;11.15;69.77
67641;SHT31;54434;50.096;20.082;2023-04-25T15:23:18;11.16;70.28
67641;SHT31;54434;50.096;20.082;2023-04-25T15:25:57;11.19;70.57
67641;SHT31;54434;50.096;20.082;2023-04-25T15:28:34;11.21;70.10
67641;SHT31;54434;50.096;20.082;2023-04-25T15:31:10;11.23;70.02
67641;SHT31;54434;50.096;20.082;2023-04-25T15:33:47;11.24;68.44
67641;SHT31;54434;50.096;20.082;2023-04-25T15:36:24;11.25;65.79
67641;SHT31;54434;50.096;20.082;2023-04-25T15:39:01;11.28;64.92
67641;SHT31;54434;50.096;20.082;2023-04-25T15:41:40;11.29;64.91
67641;SHT31;54434;50.096;20.082;2023-04-25T15:44:16;11.28;64.15
67641;SHT31;54434;50.096;20.082;2023-04-25T15:46:53;11.29;64.09
67641;SHT31;54434;50.096;20.082;2023-04-25T15:49:29;11.31;64.31
67641;SHT31;54434;50.096;20.082;2023-04-25T15:52:05;11.32;63.35
67641;SHT31;54434;50.096;20.082;2023-04-25T15:54:42;11.31;62.69
67641;SHT31;54434;50.096;20.082;2023-04-25T15:57:18;11.29;62.76
67641;SHT31;54434;50.096;20.082;2023-04-25T15:59:54;11.26;62.35
67641;SHT31;54434;50.096;20.082;2023-04-25T16:02:31;11.23;62.53
67641;SHT31;54434;50.096;20.082;2023-04-25T16:05:16;11.22;62.86
67641;SHT31;54434;50.096;20.082;2023-04-25T16:07:53;11.22;62.44
67641;SHT31;54434;50.096;20.082;2023-04-25T16:10:29;11.23;62.88
67641;SHT31;54434;50.096;20.082;2023-04-25T16:13:06;11.27;62.66
67641;SHT31;54434;50.096;20.082;2023-04-25T16:15:42;11.30;62.71
67641;SHT31;54434;50.096;20.082;2023-04-25T16:18:19;11.35;62.97
67641;SHT31;54434;50.096;20.082;2023-04-25T16:20:55;11.40;63.03
67641;SHT31;54434;50.096;20.082;2023-04-25T16:23:32;11.45;62.61
67641;SHT31;54434;50.096;20.082;2023-04-25T16:26:08;11.49;62.26
67641;SHT31;54434;50.096;20.082;2023-04-25T16:28:46;11.50;62.19
67641;SHT31;54434;50.096;20.082;2023-04-25T16:31:22;11.50;61.41
67641;SHT31;54434;50.096;20.082;2023-04-25T16:34:01;11.51;61.86
67641;SHT31;54434;50.096;20.082;2023-04-25T16:36:38;11.52;61.71